createdAt,value
2023-01-18T00:01:19.288Z,95666.44
2023-01-18T00:03:45.929Z,95661.72
2023-01-18T00:06:12.620Z,95673.59
2023-01-18T00:08:41.012Z,95666.22
2023-01-18T00:11:16.917Z,95668.91
2023-01-18T00:13:44.133Z,95671.25
2023-01-18T00:16:14.194Z,95666.69
2023-01-18T00:18:40.785Z,95673.59
2023-01-18T00:21:09.764Z,95674.09
2023-01-18T00:23:36.254Z,95667.97
2023-01-18T00:26:07.732Z,95675.19
2023-01-18T00:28:34.676Z,95675.97
2023-01-18T00:31:01.241Z,95681.50
2023-01-18T00:33:27.993Z,95675.38
2023-01-18T00:35:58.731Z,95678.53
2023-01-18T00:38:25.847Z,95679.19
2023-01-18T00:40:52.379Z,95671.78
2023-01-18T00:43:37.699Z,95684.16
2023-01-18T00:46:11.794Z,95687.41
2023-01-18T00:48:39.808Z,95685.84
2023-01-18T00:51:08.123Z,95684.75
2023-01-18T00:53:35.006Z,95685.25
2023-01-18T00:56:01.383Z,95691.84
2023-01-18T00:58:28.926Z,95681.81
2023-01-18T01:00:55.508Z,95681.63
2023-01-18T01:03:21.941Z,95685.84
2023-01-18T01:06:06.834Z,95691.97
2023-01-18T01:08:33.762Z,95691.19
2023-01-18T01:11:07.348Z,95691.28
2023-01-18T01:13:52.331Z,95689.25
2023-01-18T01:16:37.174Z,95693.47
2023-01-18T01:19:22.506Z,95700.38
2023-01-18T01:22:07.910Z,95697.94
2023-01-18T01:24:53.679Z,95705.31
2023-01-18T01:27:20.647Z,95707.09
2023-01-18T01:29:47.041Z,95709.75
2023-01-18T01:32:13.541Z,95711.16
2023-01-18T01:34:39.995Z,95713.81
2023-01-18T01:37:06.521Z,95713.50
2023-01-18T01:39:32.957Z,95719.94
2023-01-18T01:41:59.401Z,95716.91
2023-01-18T01:44:28.138Z,95709.97
2023-01-18T01:47:02.678Z,95713.72
2023-01-18T01:49:32.828Z,95719.69
2023-01-18T01:52:09.084Z,95716.53
2023-01-18T01:54:40.720Z,95715.44
2023-01-18T01:57:17.948Z,95727.38
2023-01-18T02:00:03.349Z,95724.41
2023-01-18T02:02:32.839Z,95735.06
2023-01-18T02:05:01.397Z,95734.78
2023-01-18T02:07:28.860Z,95730.34
2023-01-18T02:09:57.114Z,95740.22
2023-01-18T02:12:23.821Z,95742.59
2023-01-18T02:14:50.864Z,95742.09
2023-01-18T02:17:40.592Z,95739.06
2023-01-18T02:20:28.291Z,95743.41
2023-01-18T02:23:21.120Z,95742.94
2023-01-18T02:25:50.316Z,95746.69
2023-01-18T02:28:21.194Z,95748.56
2023-01-18T02:30:58.472Z,95749.94
2023-01-18T02:33:33.842Z,95750.53
2023-01-18T02:36:02.821Z,95752.69
2023-01-18T02:38:44.571Z,95753.50
2023-01-18T02:41:19.635Z,95755.25
2023-01-18T02:44:07.663Z,95766.91
2023-01-18T02:46:34.502Z,95763.94
2023-01-18T02:49:18.676Z,95756.84
2023-01-18T02:51:45.118Z,95769.91
2023-01-18T02:54:13.104Z,95764.56
2023-01-18T02:56:47.106Z,95765.94
2023-01-18T02:59:24.511Z,95770.97
2023-01-18T03:02:00.493Z,95772.25
2023-01-18T03:04:56.066Z,95771.78
2023-01-18T03:07:28.468Z,95774.22
2023-01-18T03:09:57.326Z,95766.03
2023-01-18T03:12:45.950Z,95779.56
2023-01-18T03:15:15.585Z,95769.38
2023-01-18T03:17:49.009Z,95772.75
2023-01-18T03:20:20.648Z,95774.53
2023-01-18T03:23:20.010Z,95787.66
2023-01-18T03:25:49.442Z,95786.06
2023-01-18T03:28:39.591Z,95786.69
2023-01-18T03:31:30.054Z,95781.94
2023-01-18T03:34:03.509Z,95776.81
2023-01-18T03:36:38.979Z,95782.91
2023-01-18T03:39:10.312Z,95788.25
2023-01-18T03:41:42.287Z,95793.69
2023-01-18T03:44:19.471Z,95790.03
2023-01-18T03:46:47.592Z,95790.84
2023-01-18T03:49:16.344Z,95794.56
2023-01-18T03:52:00.103Z,95806.03
2023-01-18T03:54:56.386Z,95803.66
2023-01-18T03:57:33.494Z,95812.97
2023-01-18T04:00:01.454Z,95814.31
2023-01-18T04:02:28.190Z,95818.38
2023-01-18T04:04:57.595Z,95809.00
2023-01-18T04:07:25.755Z,95807.41
2023-01-18T04:09:52.210Z,95817.50
2023-01-18T04:12:18.801Z,95807.91
2023-01-18T04:14:45.284Z,95807.41
2023-01-18T04:17:11.732Z,95811.34
2023-01-18T04:19:40.453Z,95811.06
2023-01-18T04:22:09.687Z,95818.28
2023-01-18T04:24:36.307Z,95817.78
2023-01-18T04:27:03.308Z,95826.38
2023-01-18T04:29:30.006Z,95833.91
2023-01-18T04:31:56.526Z,95832.91
2023-01-18T04:34:23.007Z,95834.06
2023-01-18T04:36:53.541Z,95835.66
2023-01-18T04:39:20.035Z,95836.25
2023-01-18T04:41:46.404Z,95840.00
2023-01-18T04:44:13.937Z,95843.16
2023-01-18T04:46:40.472Z,95841.59
2023-01-18T04:49:12.183Z,95850.94
2023-01-18T04:51:39.247Z,95858.66
2023-01-18T04:54:05.763Z,95861.91
2023-01-18T04:56:32.223Z,95861.91
2023-01-18T04:58:58.635Z,95861.91
2023-01-18T05:01:25.192Z,95870.97
2023-01-18T05:03:53.275Z,95869.41
2023-01-18T05:06:22.569Z,95877.88
2023-01-18T05:08:48.996Z,95880.56
2023-01-18T05:11:17.489Z,95892.31
2023-01-18T05:13:44.805Z,95896.84
2023-01-18T05:16:20.364Z,95899.81
2023-01-18T05:18:47.317Z,95918.97
2023-01-18T05:21:14.551Z,95917.38
2023-01-18T05:23:41.225Z,95917.94
2023-01-18T05:26:14.516Z,95927.63
2023-01-18T05:28:42.224Z,95936.78
2023-01-18T05:31:09.409Z,95944.00
2023-01-18T05:33:36.179Z,95949.09
2023-01-18T05:36:02.658Z,95962.41
2023-01-18T05:38:29.089Z,95958.78
2023-01-18T05:40:55.549Z,95960.13
2023-01-18T05:43:24.954Z,95966.75
2023-01-18T05:45:51.524Z,95966.75
2023-01-18T05:48:18.823Z,95976.34
2023-01-18T05:50:46.577Z,95977.13
2023-01-18T05:53:15.501Z,95977.34
2023-01-18T05:55:42.236Z,95983.25
2023-01-18T05:58:09.089Z,95987.19
2023-01-18T06:00:35.646Z,95995.19
2023-01-18T06:03:02.095Z,95998.16
2023-01-18T06:05:28.973Z,96012.84
2023-01-18T06:07:55.435Z,96020.03
2023-01-18T06:10:21.927Z,96028.03
2023-01-18T06:12:48.403Z,96034.66
2023-01-18T06:15:15.621Z,96039.69
2023-01-18T06:17:45.075Z,96042.09
2023-01-18T06:20:12.691Z,96054.09
2023-01-18T06:22:39.234Z,96052.50
2023-01-18T06:25:06.457Z,96060.81
2023-01-18T06:27:33.014Z,96064.84
2023-01-18T06:29:59.369Z,96068.00
2023-01-18T06:32:25.821Z,96070.66
2023-01-18T06:34:52.267Z,96078.16
2023-01-18T06:37:18.755Z,96082.13
2023-01-18T06:39:45.138Z,96087.66
2023-01-18T06:42:11.539Z,96090.03
2023-01-18T06:44:38.006Z,96093.22
2023-01-18T06:47:04.525Z,96093.50
2023-01-18T06:49:31.026Z,96095.63
2023-01-18T06:51:57.504Z,96112.72
2023-01-18T06:54:23.996Z,96108.97
2023-01-18T06:56:50.680Z,96113.72
2023-01-18T06:59:17.145Z,96114.03
2023-01-18T07:01:43.689Z,96121.22
2023-01-18T07:04:10.335Z,96122.00
2023-01-18T07:06:36.895Z,96124.38
2023-01-18T07:09:07.547Z,96132.88
2023-01-18T07:11:35.705Z,96130.50
2023-01-18T07:14:02.281Z,96137.22
2023-01-18T07:16:30.223Z,96141.47
2023-01-18T07:18:56.691Z,96150.59
2023-01-18T07:21:29.350Z,96158.28
2023-01-18T07:23:57.614Z,96166.78
2023-01-18T07:26:25.320Z,96171.31
2023-01-18T07:28:52.441Z,96180.41
2023-01-18T07:31:19.095Z,96180.41
2023-01-18T07:33:45.597Z,96188.88
2023-01-18T07:36:13.949Z,96188.88
2023-01-18T07:38:40.955Z,96198.22
2023-01-18T07:41:10.129Z,96192.34
2023-01-18T07:43:37.884Z,96205.16
2023-01-18T07:46:06.930Z,96204.16
2023-01-18T07:48:33.978Z,96209.22
2023-01-18T07:51:03.828Z,96217.19
2023-01-18T07:53:32.442Z,96216.69
2023-01-18T07:56:00.841Z,96230.28
2023-01-18T07:58:27.544Z,96231.66
2023-01-18T08:00:54.146Z,96247.41
2023-01-18T08:03:21.230Z,96241.06
2023-01-18T08:05:47.950Z,96255.22
2023-01-18T08:08:16.779Z,96252.59
2023-01-18T08:10:44.135Z,96263.25
2023-01-18T08:13:10.890Z,96264.88
2023-01-18T08:15:38.573Z,96271.78
2023-01-18T08:18:06.613Z,96269.63
2023-01-18T08:20:33.564Z,96281.56
2023-01-18T08:23:01.649Z,96284.22
2023-01-18T08:25:30.395Z,96287.19
2023-01-18T08:27:59.015Z,96290.34
2023-01-18T08:30:28.075Z,96303.41
2023-01-18T08:32:58.808Z,96304.19
2023-01-18T08:35:30.257Z,96302.28
2023-01-18T08:37:58.717Z,96303.88
2023-01-18T08:40:27.163Z,96323.03
2023-01-18T08:42:58.711Z,96327.56
2023-01-18T08:45:26.139Z,96333.19
2023-01-18T08:48:10.572Z,96339.84
2023-01-18T08:50:38.977Z,96343.28
2023-01-18T08:53:05.582Z,96354.19
2023-01-18T08:55:34.039Z,96355.25
2023-01-18T08:58:00.664Z,96360.81
2023-01-18T09:00:30.701Z,96362.69
2023-01-18T09:02:59.107Z,96365.91
2023-01-18T09:05:27.002Z,96369.63
2023-01-18T09:07:54.569Z,96373.88
2023-01-18T09:10:22.254Z,96384.00
2023-01-18T09:12:49.031Z,96388.84
2023-01-18T09:15:15.762Z,96396.25
2023-01-18T09:17:42.267Z,96395.72
2023-01-18T09:20:09.804Z,96396.72
2023-01-18T09:22:37.171Z,96397.28
2023-01-18T09:25:05.651Z,96408.75
2023-01-18T09:27:32.853Z,96409.53
2023-01-18T09:29:59.253Z,96413.78
2023-01-18T09:32:27.395Z,96428.94
2023-01-18T09:34:54.805Z,96437.22
2023-01-18T09:37:21.740Z,96439.34
2023-01-18T09:39:52.059Z,96445.25
2023-01-18T09:42:25.290Z,96449.00
2023-01-18T09:44:56.481Z,96452.75
2023-01-18T09:47:24.896Z,96462.28
2023-01-18T09:49:56.679Z,96463.88
2023-01-18T09:52:32.450Z,96454.81
2023-01-18T09:55:36.396Z,96467.03
2023-01-18T09:58:12.369Z,96478.69
2023-01-18T10:00:46.246Z,96468.09
2023-01-18T10:03:35.199Z,96477.13
2023-01-18T10:06:09.739Z,96483.28
2023-01-18T10:08:51.081Z,96481.69
2023-01-18T10:11:31.430Z,96491.00
2023-01-18T10:14:13.746Z,96492.59
2023-01-18T10:16:40.228Z,96495.25
2023-01-18T10:19:15.215Z,96497.41
2023-01-18T10:21:53.665Z,96506.19
2023-01-18T10:24:32.426Z,96502.19
2023-01-18T10:27:10.674Z,96509.69
2023-01-18T10:30:06.906Z,96501.69
2023-01-18T10:32:36.217Z,96513.41
2023-01-18T10:35:14.360Z,96512.88
2023-01-18T10:37:46.620Z,96521.41
2023-01-18T10:40:14.885Z,96522.44
2023-01-18T10:42:48.737Z,96524.31
2023-01-18T10:45:21.587Z,96527.53
2023-01-18T10:47:50.073Z,96536.25
2023-01-18T10:50:36.656Z,96542.13
2023-01-18T10:53:21.957Z,96534.41
2023-01-18T10:56:04.249Z,96531.97
2023-01-18T10:58:52.175Z,96539.63
2023-01-18T11:01:27.492Z,96542.50
2023-01-18T11:03:56.115Z,96541.41
2023-01-18T11:06:24.426Z,96544.53
2023-01-18T11:08:51.711Z,96557.22
2023-01-18T11:12:10.917Z,96546.84
2023-01-18T11:14:39.339Z,96552.88
2023-01-18T11:17:17.576Z,96561.97
2023-01-18T11:19:43.959Z,96561.41
2023-01-18T11:22:16.792Z,96560.66
2023-01-18T11:24:43.589Z,96561.47
2023-01-18T11:27:23.486Z,96562.06
2023-01-18T11:29:50.551Z,96575.94
2023-01-18T11:32:27.836Z,96574.66
2023-01-18T11:34:57.911Z,96588.78
2023-01-18T11:37:30.834Z,96589.88
2023-01-18T11:39:57.353Z,96585.59
2023-01-18T11:42:36.490Z,96592.22
2023-01-18T11:45:22.768Z,96590.88
2023-01-18T11:48:02.446Z,96590.06
2023-01-18T11:50:47.134Z,96594.06
2023-01-18T11:53:43.818Z,96596.91
2023-01-18T11:56:32.332Z,96587.53
2023-01-18T11:59:00.904Z,96606.44
2023-01-18T12:01:47.545Z,96601.94
2023-01-18T12:04:23.145Z,96601.97
2023-01-18T12:07:04.779Z,96610.28
2023-01-18T12:09:43.079Z,96615.44
2023-01-18T12:12:40.255Z,96618.13
2023-01-18T12:15:29.112Z,96624.00
2023-01-18T12:18:12.912Z,96636.25
2023-01-18T12:20:56.106Z,96633.34
2023-01-18T12:23:29.809Z,96633.41
2023-01-18T12:26:11.711Z,96641.09
2023-01-18T12:28:47.160Z,96642.41
2023-01-18T12:31:20.073Z,96644.53
2023-01-18T12:34:07.511Z,96661.34
2023-01-18T12:37:13.399Z,96657.03
2023-01-18T12:40:01.583Z,96657.03
2023-01-18T12:42:50.218Z,96668.25
2023-01-18T12:45:31.956Z,96667.66
2023-01-18T12:48:13.783Z,96677.25
2023-01-18T12:50:43.448Z,96680.72
2023-01-18T12:53:23.464Z,96676.97
2023-01-18T12:55:53.728Z,96677.22
2023-01-18T12:58:24.537Z,96680.63
2023-01-18T13:00:59.023Z,96684.63
2023-01-18T13:03:42.521Z,96679.81
2023-01-18T13:06:10.027Z,96687.56
2023-01-18T13:08:44.668Z,96688.88
2023-01-18T13:11:20.122Z,96690.50
2023-01-18T13:13:49.765Z,96698.50
2023-01-18T13:16:39.333Z,96704.13
2023-01-18T13:19:10.534Z,96702.78
2023-01-18T13:21:42.836Z,96708.91
2023-01-18T13:24:37.349Z,96717.97
2023-01-18T13:27:09.600Z,96711.84
2023-01-18T13:29:36.864Z,96720.13
2023-01-18T13:32:03.714Z,96728.41
2023-01-18T13:34:48.050Z,96734.28
2023-01-18T13:37:40.273Z,96735.63
2023-01-18T13:40:19.288Z,96740.19
2023-01-18T13:42:45.764Z,96750.84
2023-01-18T13:45:38.835Z,96758.56
2023-01-18T13:48:35.111Z,96762.59
2023-01-18T13:51:02.086Z,96758.28
2023-01-18T13:53:31.435Z,96763.59
2023-01-18T13:56:04.027Z,96768.94
2023-01-18T13:58:37.971Z,96776.13
2023-01-18T14:01:08.883Z,96776.94
2023-01-18T14:03:39.111Z,96776.41
2023-01-18T14:06:09.060Z,96781.75
2023-01-18T14:08:38.479Z,96788.16
2023-01-18T14:11:10.638Z,96795.88
2023-01-18T14:13:46.128Z,96803.59
2023-01-18T14:16:18.002Z,96808.94
2023-01-18T14:18:55.632Z,96808.94
2023-01-18T14:21:40.974Z,96818.81
2023-01-18T14:24:19.698Z,96816.66
2023-01-18T14:26:47.538Z,96824.94
2023-01-18T14:29:34.737Z,96834.03
2023-01-18T14:32:05.222Z,96838.56
2023-01-18T14:34:37.876Z,96839.38
2023-01-18T14:37:27.043Z,96843.13
2023-01-18T14:40:14.532Z,96852.72
2023-01-18T14:42:50.034Z,96856.97
2023-01-18T14:45:22.770Z,96853.22
2023-01-18T14:47:49.748Z,96860.16
2023-01-18T14:50:20.572Z,96865.50
2023-01-18T14:52:50.400Z,96863.09
2023-01-18T14:55:34.299Z,96872.72
2023-01-18T14:58:03.747Z,96876.44
2023-01-18T15:00:31.994Z,96886.84
2023-01-18T15:03:00.716Z,96882.84
2023-01-18T15:05:29.802Z,96895.91
2023-01-18T15:07:58.480Z,96886.84
2023-01-18T15:10:26.049Z,96898.31
2023-01-18T15:12:57.609Z,96907.13
2023-01-18T15:15:31.300Z,96907.13
2023-01-18T15:18:05.793Z,96911.94
2023-01-18T15:20:34.946Z,96918.88
2023-01-18T15:23:01.978Z,96929.25
2023-01-18T15:25:32.761Z,96925.78
2023-01-18T15:28:18.383Z,96930.34
2023-01-18T15:30:54.869Z,96931.13
2023-01-18T15:33:23.516Z,96933.56
2023-01-18T15:35:55.716Z,96938.09
2023-01-18T15:38:22.212Z,96943.44
2023-01-18T15:41:11.462Z,96948.75
2023-01-18T15:43:42.095Z,96957.56
2023-01-18T15:46:12.036Z,96960.50
2023-01-18T15:48:51.487Z,96968.25
2023-01-18T15:51:22.292Z,96973.31
2023-01-18T15:53:52.550Z,96982.38
2023-01-18T15:56:26.460Z,96976.53
2023-01-18T15:58:55.884Z,96980.28
2023-01-18T16:01:28.102Z,96985.84
2023-01-18T16:04:00.467Z,96994.66
2023-01-18T16:06:29.596Z,97000.78
2023-01-18T16:09:13.308Z,96988.53
2023-01-18T16:11:58.387Z,97003.75
2023-01-18T16:14:28.139Z,97008.00
2023-01-18T16:16:56.931Z,97006.41
2023-01-18T16:19:31.752Z,97017.88
2023-01-18T16:22:01.642Z,97018.94
2023-01-18T16:24:37.353Z,97019.75
2023-01-18T16:27:15.894Z,97028.81
2023-01-18T16:29:48.077Z,97031.78
2023-01-18T16:32:27.911Z,97032.56
2023-01-18T16:35:14.340Z,97031.25
2023-01-18T16:37:41.867Z,97035.75
2023-01-18T16:40:09.453Z,97048.28
2023-01-18T16:42:53.769Z,97045.91
2023-01-18T16:45:20.949Z,97044.31
2023-01-18T16:47:47.316Z,97050.44
2023-01-18T16:50:17.946Z,97051.50
2023-01-18T16:52:44.896Z,97059.53
2023-01-18T16:55:15.063Z,97062.97
2023-01-18T16:57:43.001Z,97064.06
2023-01-18T17:00:15.809Z,97059.78
2023-01-18T17:02:42.302Z,97064.56
2023-01-18T17:05:09.416Z,97065.13
2023-01-18T17:07:36.003Z,97071.00
2023-01-18T17:10:02.802Z,97075.25
2023-01-18T17:12:29.292Z,97079.28
2023-01-18T17:14:55.669Z,97079.50
2023-01-18T17:17:22.097Z,97084.31
2023-01-18T17:19:48.521Z,97091.78
2023-01-18T17:22:14.966Z,97093.91
2023-01-18T17:24:41.651Z,97096.06
2023-01-18T17:27:11.580Z,97100.31
2023-01-18T17:29:38.004Z,97112.03
2023-01-18T17:32:05.544Z,97114.16
2023-01-18T17:34:32.221Z,97114.44
2023-01-18T17:36:58.894Z,97115.50
2023-01-18T17:39:36.972Z,97116.81
2023-01-18T17:42:14.230Z,97122.16
2023-01-18T17:44:43.103Z,97123.75
2023-01-18T17:47:09.772Z,97131.75
2023-01-18T17:49:36.139Z,97140.03
2023-01-18T17:52:03.380Z,97141.59
2023-01-18T17:54:30.014Z,97144.53
2023-01-18T17:56:56.574Z,97150.94
2023-01-18T17:59:23.062Z,97151.44
2023-01-18T18:01:49.547Z,97154.66
2023-01-18T18:04:16.107Z,97157.31
2023-01-18T18:06:49.775Z,97163.72
2023-01-18T18:09:20.449Z,97163.16
2023-01-18T18:11:46.900Z,97166.88
2023-01-18T18:14:13.244Z,97177.56
2023-01-18T18:16:43.505Z,97178.09
2023-01-18T18:19:17.011Z,97182.63
2023-01-18T18:21:43.534Z,97189.25
2023-01-18T18:24:09.987Z,97189.25
2023-01-18T18:26:36.377Z,97199.13
2023-01-18T18:29:02.858Z,97190.03
2023-01-18T18:31:29.541Z,97198.59
2023-01-18T18:33:56.145Z,97204.75
2023-01-18T18:36:28.146Z,97203.13
2023-01-18T18:38:57.694Z,97212.72
2023-01-18T18:41:24.446Z,97220.72
2023-01-18T18:43:50.931Z,97228.72
2023-01-18T18:46:17.541Z,97229.25
2023-01-18T18:48:44.048Z,97229.00
2023-01-18T18:51:10.590Z,97233.53
2023-01-18T18:53:40.851Z,97243.13
2023-01-18T18:56:10.989Z,97248.44
2023-01-18T18:58:39.043Z,97250.03
2023-01-18T19:01:07.268Z,97256.75
2023-01-18T19:03:35.051Z,97260.22
2023-01-18T19:06:01.756Z,97261.28
2023-01-18T19:08:28.255Z,97262.88
2023-01-18T19:10:56.101Z,97269.00
2023-01-18T19:13:22.541Z,97261.81
2023-01-18T19:15:51.221Z,97273.53
2023-01-18T19:18:17.755Z,97280.47
2023-01-18T19:20:44.200Z,97285.00
2023-01-18T19:23:10.999Z,97281.53
2023-01-18T19:25:38.688Z,97283.66
2023-01-18T19:28:05.203Z,97295.38
2023-01-18T19:30:33.093Z,97299.88
2023-01-18T19:33:03.595Z,97297.22
2023-01-18T19:35:31.199Z,97294.78
2023-01-18T19:38:00.181Z,97303.31
2023-01-18T19:40:26.662Z,97303.00
2023-01-18T19:42:54.462Z,97309.66
2023-01-18T19:45:27.811Z,97307.53
2023-01-18T19:47:56.660Z,97312.28
2023-01-18T19:50:23.353Z,97318.94
2023-01-18T19:52:50.208Z,97317.34
2023-01-18T19:55:16.954Z,97325.59
2023-01-18T19:57:43.550Z,97322.38
2023-01-18T20:00:10.717Z,97327.97
2023-01-18T20:02:41.237Z,97336.22
2023-01-18T20:05:08.298Z,97330.34
2023-01-18T20:07:34.702Z,97328.72
2023-01-18T20:10:01.768Z,97341.50
2023-01-18T20:12:31.243Z,97341.50
2023-01-18T20:14:58.119Z,97346.03
2023-01-18T20:17:24.926Z,97350.53
2023-01-18T20:19:54.062Z,97342.81
2023-01-18T20:22:21.407Z,97351.88
2023-01-18T20:24:47.992Z,97365.41
2023-01-18T20:27:16.840Z,97354.75
2023-01-18T20:29:43.905Z,97358.00
2023-01-18T20:32:16.200Z,97376.13
2023-01-18T20:34:47.562Z,97377.72
2023-01-18T20:37:15.655Z,97376.66
2023-01-18T20:39:42.818Z,97364.41
2023-01-18T20:42:09.318Z,97376.94
2023-01-18T20:44:36.158Z,97380.41
2023-01-18T20:47:03.036Z,97385.47
2023-01-18T20:49:37.841Z,97378.00
2023-01-18T20:52:06.797Z,97384.13
2023-01-18T20:54:34.872Z,97395.56
2023-01-18T20:57:02.572Z,97394.78
2023-01-18T20:59:28.940Z,97394.22
2023-01-18T21:01:55.631Z,97391.56
2023-01-18T21:04:22.413Z,97402.22
2023-01-18T21:06:49.727Z,97409.16
2023-01-18T21:09:16.506Z,97410.47
2023-01-18T21:11:42.904Z,97415.00
2023-01-18T21:14:09.390Z,97413.38
2023-01-18T21:16:35.780Z,97416.28
2023-01-18T21:19:02.614Z,97420.81
2023-01-18T21:21:31.377Z,97419.22
2023-01-18T21:23:58.069Z,97418.66
2023-01-18T21:26:24.535Z,97423.19
2023-01-18T21:28:50.916Z,97427.16
2023-01-18T21:31:17.508Z,97426.88
2023-01-18T21:33:44.197Z,97437.75
2023-01-18T21:36:17.587Z,97447.84
2023-01-18T21:38:44.484Z,97445.13
2023-01-18T21:41:30.066Z,97455.78
2023-01-18T21:44:14.933Z,97446.13
2023-01-18T21:46:47.622Z,97452.75
2023-01-18T21:49:51.945Z,97451.97
2023-01-18T21:52:43.257Z,97453.50
2023-01-18T21:55:10.077Z,97456.16
2023-01-18T21:57:36.676Z,97460.94
2023-01-18T22:00:04.957Z,97460.41
2023-01-18T22:02:32.958Z,97467.31
2023-01-18T22:05:05.450Z,97465.72
2023-01-18T22:07:35.055Z,97477.44
2023-01-18T22:10:05.728Z,97481.69
2023-01-18T22:12:35.455Z,97481.94
2023-01-18T22:15:06.559Z,97488.31
2023-01-18T22:17:33.063Z,97490.66
2023-01-18T22:20:00.185Z,97498.66
2023-01-18T22:22:26.874Z,97503.66
2023-01-18T22:24:53.509Z,97506.56
2023-01-18T22:27:20.195Z,97506.56
2023-01-18T22:29:46.810Z,97510.28
2023-01-18T22:32:13.636Z,97513.50
2023-01-18T22:34:40.118Z,97513.22
2023-01-18T22:37:06.712Z,97522.00
2023-01-18T22:39:33.416Z,97521.44
2023-01-18T22:41:59.876Z,97526.50
2023-01-18T22:44:26.400Z,97516.59
2023-01-18T22:46:52.940Z,97524.59
2023-01-18T22:49:19.788Z,97532.00
2023-01-18T22:51:46.320Z,97526.38
2023-01-18T22:54:12.757Z,97528.72
2023-01-18T22:56:39.351Z,97533.78
2023-01-18T22:59:05.909Z,97535.16
2023-01-18T23:01:33.558Z,97530.66
2023-01-18T23:04:02.871Z,97532.44
2023-01-18T23:06:41.821Z,97535.03
2023-01-18T23:09:10.141Z,97541.66
2023-01-18T23:11:37.180Z,97541.88
2023-01-18T23:14:22.881Z,97542.63
2023-01-18T23:17:08.155Z,97550.34
2023-01-18T23:19:34.805Z,97563.91
2023-01-18T23:22:06.998Z,97556.66
2023-01-18T23:24:38.098Z,97560.38
2023-01-18T23:27:07.113Z,97561.41
2023-01-18T23:29:33.960Z,97552.31
2023-01-18T23:32:00.573Z,97555.50
2023-01-18T23:34:27.200Z,97556.00
2023-01-18T23:36:54.100Z,97562.38
2023-01-18T23:39:39.236Z,97570.13
2023-01-18T23:42:24.488Z,97569.06
2023-01-18T23:45:09.408Z,97567.72
2023-01-18T23:47:54.659Z,97567.97
2023-01-18T23:50:39.799Z,97567.16
2023-01-18T23:53:28.741Z,97569.22
2023-01-18T23:55:55.329Z,97576.66
2023-01-18T23:58:21.867Z,97578.75
